sensor_id;sensor_type;location;lat;lon;timestamp;pressure;altitude;pressure_sealevel;temperature;humidity
8890;BME280;4481;43.406;24.454;2023-04-01T00:00:33;76624.72;;;-144.09;99.55
8890;BME280;4481;43.406;24.454;2023-04-01T00:02:59;76612.19;;;-144.09;99.36
8890;BME280;4481;43.406;24.454;2023-04-01T00:05:26;76616.34;;;-144.09;99.60
8890;BME280;4481;43.406;24.454;2023-04-01T00:07:52;76616.34;;;-144.09;100.00
8890;BME280;4481;43.406;24.454;2023-04-01T00:10:18;76610.09;;;-144.09;99.63
8890;BME280;4481;43.406;24.454;2023-04-01T00:12:45;76616.34;;;-144.09;100.00
8890;BME280;4481;43.406;24.454;2023-04-01T00:15:11;76620.53;;;-144.09;100.00
8890;BME280;4481;43.406;24.454;2023-04-01T00:17:37;76610.09;;;-144.09;99.50
8890;BME280;4481;43.406;24.454;2023-04-01T00:20:04;76612.19;;;-144.09;99.22
8890;BME280;4481;43.406;24.454;2023-04-01T00:22:31;76595.47;;;-144.09;99.23
8890;BME280;4481;43.406;24.454;2023-04-01T00:24:58;76593.38;;;-144.09;99.30
8890;BME280;4481;43.406;24.454;2023-04-01T00:27:24;76597.56;;;-144.09;99.29
8890;BME280;4481;43.406;24.454;2023-04-01T00:29:51;76587.09;;;-144.09;99.13
8890;BME280;4481;43.406;24.454;2023-04-01T00:32:17;76562.03;;;-144.09;98.20
8890;BME280;4481;43.406;24.454;2023-04-01T00:34:43;76549.50;;;-144.09;98.02
8890;BME280;4481;43.406;24.454;2023-04-01T00:37:10;76526.50;;;-144.09;96.64
8890;BME280;4481;43.406;24.454;2023-04-01T00:39:37;76513.97;;;-144.09;96.04
8890;BME280;4481;43.406;24.454;2023-04-01T00:42:04;76507.69;;;-144.09;95.69
8890;BME280;4481;43.406;24.454;2023-04-01T00:44:32;76488.88;;;-144.09;95.50
8890;BME280;4481;43.406;24.454;2023-04-01T00:46:59;76484.72;;;-144.09;95.71
8890;BME280;4481;43.406;24.454;2023-04-01T00:49:28;76468.00;;;-144.09;95.00
8890;BME280;4481;43.406;24.454;2023-04-01T00:51:57;76457.53;;;-144.09;94.32
8890;BME280;4481;43.406;24.454;2023-04-01T00:54:27;76449.19;;;-144.09;93.17
8890;BME280;4481;43.406;24.454;2023-04-01T00:56:57;76445.00;;;-144.09;93.25
8890;BME280;4481;43.406;24.454;2023-04-01T00:59:27;76434.56;;;-144.09;92.89
8890;BME280;4481;43.406;24.454;2023-04-01T01:01:55;76432.47;;;-144.09;92.55
8890;BME280;4481;43.406;24.454;2023-04-01T01:04:23;76428.28;;;-144.09;92.62
8890;BME280;4481;43.406;24.454;2023-04-01T01:06:56;76426.22;;;-144.09;92.76
8890;BME280;4481;43.406;24.454;2023-04-01T01:09:30;76430.38;;;-144.09;92.98
8890;BME280;4481;43.406;24.454;2023-04-01T01:12:06;76428.28;;;-144.09;93.20
8890;BME280;4481;43.406;24.454;2023-04-01T01:14:46;76440.84;;;-144.09;93.79
8890;BME280;4481;43.406;24.454;2023-04-01T01:17:20;76428.28;;;-144.09;93.34
8890;BME280;4481;43.406;24.454;2023-04-01T01:23:16;76442.91;;;-144.09;93.37
8890;BME280;4481;43.406;24.454;2023-04-01T01:25:56;76453.38;;;-144.09;93.23
8890;BME280;4481;43.406;24.454;2023-04-01T01:28:34;76453.38;;;-144.09;93.54
8890;BME280;4481;43.406;24.454;2023-04-01T01:31:08;76430.38;;;-144.09;92.92
8890;BME280;4481;43.406;24.454;2023-04-01T01:33:50;76424.13;;;-144.09;92.96
8890;BME280;4481;43.406;24.454;2023-04-01T01:36:22;76413.66;;;-144.09;92.44
8890;BME280;4481;43.406;24.454;2023-04-01T01:38:51;76430.38;;;-144.09;93.24
8890;BME280;4481;43.406;24.454;2023-04-01T01:41:18;76422.03;;;-144.09;92.65
8890;BME280;4481;43.406;24.454;2023-04-01T01:43:48;76430.38;;;-144.09;92.73
8890;BME280;4481;43.406;24.454;2023-04-01T01:46:19;76424.13;;;-144.09;92.44
8890;BME280;4481;43.406;24.454;2023-04-01T01:48:48;76449.19;;;-144.09;93.62
8890;BME280;4481;43.406;24.454;2023-04-01T01:51:16;76445.00;;;-144.09;93.47
8890;BME280;4481;43.406;24.454;2023-04-01T01:53:43;76451.28;;;-144.09;94.07
8890;BME280;4481;43.406;24.454;2023-04-01T01:56:10;76424.13;;;-144.09;93.84
8890;BME280;4481;43.406;24.454;2023-04-01T01:58:40;76426.22;;;-144.09;92.89
8890;BME280;4481;43.406;24.454;2023-04-01T02:01:11;76432.47;;;-144.09;92.62
8890;BME280;4481;43.406;24.454;2023-04-01T02:03:39;76432.47;;;-144.09;92.40
8890;BME280;4481;43.406;24.454;2023-04-01T02:06:08;76417.84;;;-144.09;93.13
8890;BME280;4481;43.406;24.454;2023-04-01T02:08:39;76403.22;;;-144.09;93.03
8890;BME280;4481;43.406;24.454;2023-04-01T02:11:09;76413.66;;;-144.09;92.78
8890;BME280;4481;43.406;24.454;2023-04-01T02:13:39;76417.84;;;-144.09;92.76
8890;BME280;4481;43.406;24.454;2023-04-01T02:16:12;76411.56;;;-144.09;93.00
8890;BME280;4481;43.406;24.454;2023-04-01T02:18:39;76413.66;;;-144.09;93.56
8890;BME280;4481;43.406;24.454;2023-04-01T02:21:07;76394.88;;;-144.09;93.19
8890;BME280;4481;43.406;24.454;2023-04-01T02:23:35;76411.56;;;-144.09;93.62
8890;BME280;4481;43.406;24.454;2023-04-01T02:26:03;76405.31;;;-144.09;93.54
8890;BME280;4481;43.406;24.454;2023-04-01T02:28:33;76365.63;;;-144.09;93.05
8890;BME280;4481;43.406;24.454;2023-04-01T02:31:00;76361.44;;;-144.09;92.58
8890;BME280;4481;43.406;24.454;2023-04-01T02:33:28;76346.81;;;-144.09;91.59
8890;BME280;4481;43.406;24.454;2023-04-01T02:35:55;76348.91;;;-144.09;91.78
8890;BME280;4481;43.406;24.454;2023-04-01T02:38:22;76346.81;;;-144.09;91.86
8890;BME280;4481;43.406;24.454;2023-04-01T02:40:51;76350.97;;;-144.09;91.87
8890;BME280;4481;43.406;24.454;2023-04-01T02:43:22;76350.97;;;-144.09;92.19
8890;BME280;4481;43.406;24.454;2023-04-01T02:45:48;76332.19;;;-144.09;93.26
8890;BME280;4481;43.406;24.454;2023-04-01T02:48:14;76334.28;;;-144.09;93.64
8890;BME280;4481;43.406;24.454;2023-04-01T02:50:41;76328.00;;;-144.09;92.90
8890;BME280;4481;43.406;24.454;2023-04-01T02:53:07;76346.81;;;-144.09;93.34
8890;BME280;4481;43.406;24.454;2023-04-01T02:55:33;76342.63;;;-144.09;93.12
8890;BME280;4481;43.406;24.454;2023-04-01T02:57:59;76321.72;;;-144.09;91.99
8890;BME280;4481;43.406;24.454;2023-04-01T03:00:26;76328.00;;;-144.09;91.83
8890;BME280;4481;43.406;24.454;2023-04-01T03:02:53;76317.56;;;-144.09;91.01
8890;BME280;4481;43.406;24.454;2023-04-01T03:05:19;76340.53;;;-144.09;92.09
8890;BME280;4481;43.406;24.454;2023-04-01T03:07:45;76328.00;;;-144.09;92.22
8890;BME280;4481;43.406;24.454;2023-04-01T03:10:12;76342.63;;;-144.09;92.60
8890;BME280;4481;43.406;24.454;2023-04-01T03:12:38;76342.63;;;-144.09;93.73
8890;BME280;4481;43.406;24.454;2023-04-01T03:15:05;76323.81;;;-144.09;93.91
8890;BME280;4481;43.406;24.454;2023-04-01T03:17:31;76330.09;;;-144.09;93.43
8890;BME280;4481;43.406;24.454;2023-04-01T03:19:58;76338.44;;;-144.09;93.30
8890;BME280;4481;43.406;24.454;2023-04-01T03:22:25;76330.09;;;-144.09;93.53
8890;BME280;4481;43.406;24.454;2023-04-01T03:24:51;76334.28;;;-144.09;93.94
8890;BME280;4481;43.406;24.454;2023-04-01T03:27:17;76332.19;;;-144.09;93.07
8890;BME280;4481;43.406;24.454;2023-04-01T03:29:43;76334.28;;;-144.09;93.22
8890;BME280;4481;43.406;24.454;2023-04-01T03:32:09;76315.47;;;-144.09;92.48
8890;BME280;4481;43.406;24.454;2023-04-01T03:34:35;76309.19;;;-144.09;92.78
8890;BME280;4481;43.406;24.454;2023-04-01T03:37:02;76307.09;;;-144.09;92.70
8890;BME280;4481;43.406;24.454;2023-04-01T03:39:28;76282.03;;;-144.09;91.71
8890;BME280;4481;43.406;24.454;2023-04-01T03:41:54;76286.22;;;-144.09;92.28
8890;BME280;4481;43.406;24.454;2023-04-01T03:44:20;76292.47;;;-144.09;92.34
8890;BME280;4481;43.406;24.454;2023-04-01T03:46:47;76290.41;;;-144.09;92.17
8890;BME280;4481;43.406;24.454;2023-04-01T03:49:13;76286.22;;;-144.09;92.09
8890;BME280;4481;43.406;24.454;2023-04-01T03:51:40;76307.09;;;-144.09;91.84
8890;BME280;4481;43.406;24.454;2023-04-01T03:54:07;76284.13;;;-144.09;91.80
8890;BME280;4481;43.406;24.454;2023-04-01T03:56:33;76277.84;;;-144.09;92.02
8890;BME280;4481;43.406;24.454;2023-04-01T03:59:02;76294.56;;;-144.09;92.78
8890;BME280;4481;43.406;24.454;2023-04-01T04:01:29;76282.03;;;-144.09;93.48
8890;BME280;4481;43.406;24.454;2023-04-01T04:03:55;76288.31;;;-144.09;93.74
8890;BME280;4481;43.406;24.454;2023-04-01T04:06:22;76288.31;;;-144.09;93.54
8890;BME280;4481;43.406;24.454;2023-04-01T04:08:48;76267.41;;;-144.09;92.82
8890;BME280;4481;43.406;24.454;2023-04-01T04:11:15;76267.41;;;-144.09;92.38
8890;BME280;4481;43.406;24.454;2023-04-01T04:13:43;76269.50;;;-144.09;92.40
8890;BME280;4481;43.406;24.454;2023-04-01T04:16:09;76277.84;;;-144.09;93.36
8890;BME280;4481;43.406;24.454;2023-04-01T04:18:36;76273.69;;;-144.09;93.26
8890;BME280;4481;43.406;24.454;2023-04-01T04:21:03;76267.41;;;-144.09;92.22
8890;BME280;4481;43.406;24.454;2023-04-01T04:23:29;76256.97;;;-144.09;92.11
8890;BME280;4481;43.406;24.454;2023-04-01T04:25:58;76263.22;;;-144.09;92.27
8890;BME280;4481;43.406;24.454;2023-04-01T04:28:26;76252.78;;;-144.09;92.50
8890;BME280;4481;43.406;24.454;2023-04-01T04:30:52;76254.88;;;-144.09;92.04
8890;BME280;4481;43.406;24.454;2023-04-01T04:33:18;76250.69;;;-144.09;91.74
8890;BME280;4481;43.406;24.454;2023-04-01T04:35:44;76238.16;;;-144.09;91.43
8890;BME280;4481;43.406;24.454;2023-04-01T04:38:11;76236.06;;;-144.09;91.88
8890;BME280;4481;43.406;24.454;2023-04-01T04:40:37;76231.88;;;-144.09;92.08
8890;BME280;4481;43.406;24.454;2023-04-01T04:43:04;76229.81;;;-144.09;92.17
8890;BME280;4481;43.406;24.454;2023-04-01T04:45:31;76229.81;;;-144.09;92.73
8890;BME280;4481;43.406;24.454;2023-04-01T04:47:57;76233.97;;;-144.09;93.03
8890;BME280;4481;43.406;24.454;2023-04-01T04:50:24;76223.53;;;-144.09;92.57
8890;BME280;4481;43.406;24.454;2023-04-01T04:52:50;76217.25;;;-144.09;92.30
8890;BME280;4481;43.406;24.454;2023-04-01T04:55:17;76229.81;;;-144.09;92.64
8890;BME280;4481;43.406;24.454;2023-04-01T04:57:43;76215.19;;;-144.09;91.94
8890;BME280;4481;43.406;24.454;2023-04-01T05:00:10;76213.09;;;-144.09;91.07
8890;BME280;4481;43.406;24.454;2023-04-01T05:02:37;76204.72;;;-144.09;91.86
8890;BME280;4481;43.406;24.454;2023-04-01T05:05:04;76204.72;;;-144.09;92.56
8890;BME280;4481;43.406;24.454;2023-04-01T05:07:30;76196.38;;;-144.09;92.08
8890;BME280;4481;43.406;24.454;2023-04-01T05:09:57;76179.66;;;-144.09;91.00
8890;BME280;4481;43.406;24.454;2023-04-01T05:12:23;76185.94;;;-144.09;90.91
8890;BME280;4481;43.406;24.454;2023-04-01T05:14:49;76154.59;;;-144.09;89.83
8890;BME280;4481;43.406;24.454;2023-04-01T05:17:15;76142.03;;;-144.09;89.10
8890;BME280;4481;43.406;24.454;2023-04-01T05:19:42;76127.41;;;-144.09;90.64
8890;BME280;4481;43.406;24.454;2023-04-01T05:22:08;76139.97;;;-144.09;90.12
8890;BME280;4481;43.406;24.454;2023-04-01T05:24:34;76148.31;;;-144.09;91.13
8890;BME280;4481;43.406;24.454;2023-04-01T05:27:00;76233.97;;;-144.09;94.09
8890;BME280;4481;43.406;24.454;2023-04-01T05:29:26;76298.75;;;-144.09;96.68
8890;BME280;4481;43.406;24.454;2023-04-01T05:31:53;76302.94;;;-144.09;97.32
8890;BME280;4481;43.406;24.454;2023-04-01T05:34:19;76321.72;;;-144.09;98.68
8890;BME280;4481;43.406;24.454;2023-04-01T05:36:46;76325.91;;;-144.09;98.26
8890;BME280;4481;43.406;24.454;2023-04-01T05:39:12;76307.09;;;-144.09;98.77
8890;BME280;4481;43.406;24.454;2023-04-01T05:41:38;76275.75;;;-144.09;98.46
8890;BME280;4481;43.406;24.454;2023-04-01T05:44:05;76271.59;;;-144.09;98.87
8890;BME280;4481;43.406;24.454;2023-04-01T05:46:31;76288.31;;;-144.09;100.00
8890;BME280;4481;43.406;24.454;2023-04-01T05:48:58;76261.13;;;-144.09;100.00
8890;BME280;4481;43.406;24.454;2023-04-01T05:51:24;76259.06;;;-144.09;100.00
8890;BME280;4481;43.406;24.454;2023-04-01T05:53:51;76261.13;;;-144.09;100.00
8890;BME280;4481;43.406;24.454;2023-04-01T05:56:17;76233.97;;;-144.09;100.00
8890;BME280;4481;43.406;24.454;2023-04-01T05:58:46;76229.81;;;-144.09;100.00
8890;BME280;4481;43.406;24.454;2023-04-01T06:01:13;76192.19;;;-144.09;100.00
8890;BME280;4481;43.406;24.454;2023-04-01T06:03:39;76208.91;;;-144.09;100.00
8890;BME280;4481;43.406;24.454;2023-04-01T06:06:13;76242.34;;;-144.09;100.00
8890;BME280;4481;43.406;24.454;2023-04-01T06:08:41;76240.25;;;-144.09;100.00
8890;BME280;4481;43.406;24.454;2023-04-01T06:11:19;76208.91;;;-144.09;100.00
8890;BME280;4481;43.406;24.454;2023-04-01T06:14:16;76148.31;;;-144.09;100.00
8890;BME280;4481;43.406;24.454;2023-04-01T06:16:59;76106.53;;;-144.09;100.00
8890;BME280;4481;43.406;24.454;2023-04-01T06:19:34;76079.38;;;-144.09;99.97
8890;BME280;4481;43.406;24.454;2023-04-01T06:25:22;76121.16;;;-144.09;100.00
8890;BME280;4481;43.406;24.454;2023-04-01T06:30:43;76050.13;;;-144.09;100.00
8890;BME280;4481;43.406;24.454;2023-04-01T06:33:30;76054.31;;;-144.09;98.77
8890;BME280;4481;43.406;24.454;2023-04-01T06:36:26;76041.75;;;-144.09;99.16
8890;BME280;4481;43.406;24.454;2023-04-01T06:39:17;75999.97;;;-144.09;98.25
8890;BME280;4481;43.406;24.454;2023-04-01T06:42:08;75997.88;;;-144.09;98.10
8890;BME280;4481;43.406;24.454;2023-04-01T06:44:47;75968.63;;;-144.09;96.14
8890;BME280;4481;43.406;24.454;2023-04-01T06:47:30;75937.31;;;-144.09;95.69
8890;BME280;4481;43.406;24.454;2023-04-01T06:50:07;75908.06;;;-144.09;95.15
8890;BME280;4481;43.406;24.454;2023-04-01T06:52:46;75866.28;;;-144.09;92.63
8890;BME280;4481;43.406;24.454;2023-04-01T06:55:26;75843.28;;;-144.09;92.70
8890;BME280;4481;43.406;24.454;2023-04-01T06:57:55;75839.13;;;-144.09;92.17
8890;BME280;4481;43.406;24.454;2023-04-01T07:00:27;75841.19;;;-144.09;92.59
8890;BME280;4481;43.406;24.454;2023-04-01T07:03:02;75818.22;;;-144.09;92.24
8890;BME280;4481;43.406;24.454;2023-04-01T07:05:32;75818.22;;;-144.09;91.88
8890;BME280;4481;43.406;24.454;2023-04-01T07:08:01;75788.97;;;-144.09;91.50
8890;BME280;4481;43.406;24.454;2023-04-01T07:10:34;75749.28;;;-144.09;90.51
8890;BME280;4481;43.406;24.454;2023-04-01T07:13:05;75745.09;;;-144.09;89.86
8890;BME280;4481;43.406;24.454;2023-04-01T07:15:39;75722.13;;;-144.09;89.31
8890;BME280;4481;43.406;24.454;2023-04-01T07:18:11;75707.50;;;-144.09;89.81
8890;BME280;4481;43.406;24.454;2023-04-01T07:20:40;75688.69;;;-144.09;89.55
8890;BME280;4481;43.406;24.454;2023-04-01T07:23:10;75676.16;;;-144.09;89.40
8890;BME280;4481;43.406;24.454;2023-04-01T07:25:42;75653.19;;;-144.09;89.05
8890;BME280;4481;43.406;24.454;2023-04-01T07:28:12;75640.66;;;-144.09;88.13
8890;BME280;4481;43.406;24.454;2023-04-01T07:30:58;75611.41;;;-144.09;86.79
8890;BME280;4481;43.406;24.454;2023-04-01T07:33:29;75603.06;;;-144.09;86.17
8890;BME280;4481;43.406;24.454;2023-04-01T07:36:03;75590.50;;;-144.09;86.13
8890;BME280;4481;43.406;24.454;2023-04-01T07:38:35;75565.44;;;-144.09;85.77
8890;BME280;4481;43.406;24.454;2023-04-01T07:41:10;75542.47;;;-144.09;86.23
8890;BME280;4481;43.406;24.454;2023-04-01T07:43:49;75521.59;;;-144.09;84.75
8890;BME280;4481;43.406;24.454;2023-04-01T07:46:32;75511.13;;;-144.09;84.85
8890;BME280;4481;43.406;24.454;2023-04-01T07:49:06;75479.81;;;-144.09;84.45
8890;BME280;4481;43.406;24.454;2023-04-01T07:51:38;75481.88;;;-144.09;83.03
8890;BME280;4481;43.406;24.454;2023-04-01T07:54:11;75458.91;;;-144.09;84.07
8890;BME280;4481;43.406;24.454;2023-04-01T07:56:43;75477.72;;;-144.09;82.00
8890;BME280;4481;43.406;24.454;2023-04-01T07:59:16;75456.81;;;-144.09;80.87
8890;BME280;4481;43.406;24.454;2023-04-01T08:01:50;75506.97;;;-144.09;82.35
8890;BME280;4481;43.406;24.454;2023-04-01T08:04:27;75473.53;;;-144.09;80.13
8890;BME280;4481;43.406;24.454;2023-04-01T08:07:00;75425.50;;;-144.09;78.69
8890;BME280;4481;43.406;24.454;2023-04-01T08:09:34;75371.19;;;-144.09;77.49
8890;BME280;4481;43.406;24.454;2023-04-01T08:12:13;75438.03;;;-144.09;78.41
8890;BME280;4481;43.406;24.454;2023-04-01T08:14:52;75450.56;;;-144.09;78.33
8890;BME280;4481;43.406;24.454;2023-04-01T08:17:30;75385.81;;;-144.09;77.18
8890;BME280;4481;43.406;24.454;2023-04-01T08:20:08;75352.38;;;-144.09;76.60
8890;BME280;4481;43.406;24.454;2023-04-01T08:22:40;75362.81;;;-144.09;77.31
8890;BME280;4481;43.406;24.454;2023-04-01T08:25:11;75402.50;;;-144.09;78.28
8890;BME280;4481;43.406;24.454;2023-04-01T08:27:44;75337.75;;;-144.09;76.22
8890;BME280;4481;43.406;24.454;2023-04-01T08:30:17;75293.91;;;-144.09;73.26
8890;BME280;4481;43.406;24.454;2023-04-01T08:32:48;75273.00;;;-144.09;72.90
8890;BME280;4481;43.406;24.454;2023-04-01T08:35:22;75281.38;;;-144.09;72.77
8890;BME280;4481;43.406;24.454;2023-04-01T08:37:53;75258.38;;;-144.09;71.77
8890;BME280;4481;43.406;24.454;2023-04-01T08:43:20;75266.75;;;-144.09;69.93
8890;BME280;4481;43.406;24.454;2023-04-01T08:45:59;75241.69;;;-144.09;69.39
8890;BME280;4481;43.406;24.454;2023-04-01T08:48:51;75231.22;;;-144.09;69.79
8890;BME280;4481;43.406;24.454;2023-04-01T08:54:37;75321.06;;;-144.09;73.57
8890;BME280;4481;43.406;24.454;2023-04-01T08:57:12;75331.50;;;-144.09;73.14
8890;BME280;4481;43.406;24.454;2023-04-01T08:59:53;75318.97;;;-144.09;72.41
8890;BME280;4481;43.406;24.454;2023-04-01T09:02:46;75218.69;;;-144.09;71.59
8890;BME280;4481;43.406;24.454;2023-04-01T09:05:32;75122.63;;;-144.09;69.25
8890;BME280;4481;43.406;24.454;2023-04-01T09:08:11;75078.75;;;-144.09;67.29
8890;BME280;4481;43.406;24.454;2023-04-01T09:11:06;75066.22;;;-144.09;64.67
8890;BME280;4481;43.406;24.454;2023-04-01T09:14:01;75049.50;;;-144.09;64.57
8890;BME280;4481;43.406;24.454;2023-04-01T09:16:56;75026.53;;;-144.09;60.96
8890;BME280;4481;43.406;24.454;2023-04-01T09:19:31;75018.19;;;-144.09;61.75
8890;BME280;4481;43.406;24.454;2023-04-01T09:22:25;75005.66;;;-144.09;62.65
8890;BME280;4481;43.406;24.454;2023-04-01T09:28:05;75053.69;;;-144.09;68.92
8890;BME280;4481;43.406;24.454;2023-04-01T09:30:52;75105.91;;;-144.09;70.05
8890;BME280;4481;43.406;24.454;2023-04-01T09:36:38;75187.38;;;-144.09;70.01
8890;BME280;4481;43.406;24.454;2023-04-01T09:39:22;75168.56;;;-144.09;68.93
8890;BME280;4481;43.406;24.454;2023-04-01T09:42:02;75193.63;;;-144.09;67.59
8890;BME280;4481;43.406;24.454;2023-04-01T09:44:34;75231.22;;;-144.09;68.17
8890;BME280;4481;43.406;24.454;2023-04-01T09:47:10;75218.69;;;-144.09;68.30
8890;BME280;4481;43.406;24.454;2023-04-01T09:50:00;75224.97;;;-144.09;68.06
8890;BME280;4481;43.406;24.454;2023-04-01T09:52:38;75218.69;;;-144.09;68.69
8890;BME280;4481;43.406;24.454;2023-04-01T09:58:28;75239.59;;;-144.09;69.22
8890;BME280;4481;43.406;24.454;2023-04-01T10:01:34;75237.50;;;-144.09;68.39
8890;BME280;4481;43.406;24.454;2023-04-01T10:07:48;75233.31;;;-144.09;69.77
8890;BME280;4481;43.406;24.454;2023-04-01T10:10:55;75275.09;;;-144.09;68.58
8890;BME280;4481;43.406;24.454;2023-04-01T10:13:47;75277.19;;;-144.09;70.10
8890;BME280;4481;43.406;24.454;2023-04-01T10:16:53;75321.06;;;-144.09;70.29
8890;BME280;4481;43.406;24.454;2023-04-01T10:19:50;75304.34;;;-144.09;69.76
8890;BME280;4481;43.406;24.454;2023-04-01T10:22:43;75279.28;;;-144.09;68.73
8890;BME280;4481;43.406;24.454;2023-04-01T10:25:29;75270.91;;;-144.09;69.08
8890;BME280;4481;43.406;24.454;2023-04-01T10:31:25;75231.22;;;-144.09;68.36
8890;BME280;4481;43.406;24.454;2023-04-01T10:34:26;75214.53;;;-144.09;68.13
8890;BME280;4481;43.406;24.454;2023-04-01T10:36:56;75237.50;;;-144.09;68.30
8890;BME280;4481;43.406;24.454;2023-04-01T10:39:53;75189.47;;;-144.09;67.90
8890;BME280;4481;43.406;24.454;2023-04-01T10:45:43;75202.00;;;-144.09;68.35
8890;BME280;4481;43.406;24.454;2023-04-01T10:51:16;75222.88;;;-144.09;68.42
8890;BME280;4481;43.406;24.454;2023-04-01T10:53:51;75237.50;;;-144.09;69.62
8890;BME280;4481;43.406;24.454;2023-04-01T10:56:39;75218.69;;;-144.09;69.99
8890;BME280;4481;43.406;24.454;2023-04-01T10:59:36;75233.31;;;-144.09;70.89
8890;BME280;4481;43.406;24.454;2023-04-01T11:02:28;75222.88;;;-144.09;71.57
8890;BME280;4481;43.406;24.454;2023-04-01T11:05:31;75187.38;;;-144.09;70.45
8890;BME280;4481;43.406;24.454;2023-04-01T11:14:29;75147.69;;;-144.09;69.97
8890;BME280;4481;43.406;24.454;2023-04-01T11:17:34;75164.41;;;-144.09;69.90
8890;BME280;4481;43.406;24.454;2023-04-01T11:20:28;75185.28;;;-144.09;70.20
8890;BME280;4481;43.406;24.454;2023-04-01T11:23:33;75183.19;;;-144.09;70.80
8890;BME280;4481;43.406;24.454;2023-04-01T11:26:08;75214.53;;;-144.09;71.85
8890;BME280;4481;43.406;24.454;2023-04-01T11:31:50;75199.91;;;-144.09;71.54
8890;BME280;4481;43.406;24.454;2023-04-01T11:34:39;75229.16;;;-144.09;71.82
8890;BME280;4481;43.406;24.454;2023-04-01T11:37:20;75214.53;;;-144.09;71.40
8890;BME280;4481;43.406;24.454;2023-04-01T11:39:58;75216.63;;;-144.09;71.10
8890;BME280;4481;43.406;24.454;2023-04-01T11:42:32;75229.16;;;-144.09;72.30
8890;BME280;4481;43.406;24.454;2023-04-01T11:45:14;75239.59;;;-144.09;72.34
8890;BME280;4481;43.406;24.454;2023-04-01T11:48:07;75264.66;;;-144.09;72.89
8890;BME280;4481;43.406;24.454;2023-04-01T11:50:46;75270.91;;;-144.09;73.10
8890;BME280;4481;43.406;24.454;2023-04-01T11:53:34;75250.03;;;-144.09;73.32
8890;BME280;4481;43.406;24.454;2023-04-01T11:56:16;75229.16;;;-144.09;73.47
8890;BME280;4481;43.406;24.454;2023-04-01T11:59:10;75229.16;;;-144.09;72.69
8890;BME280;4481;43.406;24.454;2023-04-01T12:01:48;75258.38;;;-144.09;73.01
8890;BME280;4481;43.406;24.454;2023-04-01T12:04:40;75285.53;;;-144.09;73.37
8890;BME280;4481;43.406;24.454;2023-04-01T12:07:18;75283.44;;;-144.09;74.24
8890;BME280;4481;43.406;24.454;2023-04-01T12:09:52;75275.09;;;-144.09;74.38
8890;BME280;4481;43.406;24.454;2023-04-01T12:12:27;75243.75;;;-144.09;73.90
8890;BME280;4481;43.406;24.454;2023-04-01T12:15:05;75204.06;;;-144.09;72.54
8890;BME280;4481;43.406;24.454;2023-04-01T12:17:44;75218.69;;;-144.09;72.80
8890;BME280;4481;43.406;24.454;2023-04-01T12:20:24;75216.63;;;-144.09;73.47
8890;BME280;4481;43.406;24.454;2023-04-01T12:23:02;75239.59;;;-144.09;74.73
8890;BME280;4481;43.406;24.454;2023-04-01T12:25:45;75256.28;;;-144.09;75.83
8890;BME280;4481;43.406;24.454;2023-04-01T12:28:25;75268.84;;;-144.09;75.95
8890;BME280;4481;43.406;24.454;2023-04-01T12:31:06;75275.09;;;-144.09;74.32
8890;BME280;4481;43.406;24.454;2023-04-01T12:34:19;75295.97;;;-144.09;74.42
8890;BME280;4481;43.406;24.454;2023-04-01T12:36:58;75298.06;;;-144.09;75.22
8890;BME280;4481;43.406;24.454;2023-04-01T12:39:44;75314.78;;;-144.09;76.38
8890;BME280;4481;43.406;24.454;2023-04-01T12:42:24;75371.19;;;-144.09;77.98
8890;BME280;4481;43.406;24.454;2023-04-01T12:45:05;75373.28;;;-144.09;78.92
8890;BME280;4481;43.406;24.454;2023-04-01T12:48:04;75352.38;;;-144.09;77.26
8890;BME280;4481;43.406;24.454;2023-04-01T12:51:00;75358.66;;;-144.09;76.54
8890;BME280;4481;43.406;24.454;2023-04-01T12:53:41;75360.75;;;-144.09;77.01
8890;BME280;4481;43.406;24.454;2023-04-01T12:56:16;75377.44;;;-144.09;77.75
8890;BME280;4481;43.406;24.454;2023-04-01T12:59:03;75394.16;;;-144.09;78.64
8890;BME280;4481;43.406;24.454;2023-04-01T13:02:07;75415.03;;;-144.09;78.93
8890;BME280;4481;43.406;24.454;2023-04-01T13:07:47;75421.31;;;-144.09;81.69
8890;BME280;4481;43.406;24.454;2023-04-01T13:10:27;75438.03;;;-144.09;81.47
8890;BME280;4481;43.406;24.454;2023-04-01T13:15:52;75494.44;;;-144.09;87.03
8890;BME280;4481;43.406;24.454;2023-04-01T13:18:28;75504.88;;;-144.09;88.80
8890;BME280;4481;43.406;24.454;2023-04-01T13:21:04;75546.66;;;-144.09;91.79
8890;BME280;4481;43.406;24.454;2023-04-01T13:23:39;75603.06;;;-144.09;94.88
8890;BME280;4481;43.406;24.454;2023-04-01T13:26:14;75674.06;;;-144.09;99.05
8890;BME280;4481;43.406;24.454;2023-04-01T13:28:46;75690.78;;;-144.09;99.83
8890;BME280;4481;43.406;24.454;2023-04-01T13:31:25;75770.16;;;-144.09;100.00
8890;BME280;4481;43.406;24.454;2023-04-01T13:34:04;75784.78;;;-144.09;100.00
8890;BME280;4481;43.406;24.454;2023-04-01T13:36:38;75807.78;;;-144.09;100.00
8890;BME280;4481;43.406;24.454;2023-04-01T13:39:34;75843.28;;;-144.09;100.00
8890;BME280;4481;43.406;24.454;2023-04-01T13:42:16;75847.47;;;-144.09;100.00
8890;BME280;4481;43.406;24.454;2023-04-01T13:44:48;75853.72;;;-144.09;100.00
8890;BME280;4481;43.406;24.454;2023-04-01T13:47:51;75853.72;;;-144.09;100.00
8890;BME280;4481;43.406;24.454;2023-04-01T13:50:29;75799.41;;;-144.09;100.00
8890;BME280;4481;43.406;24.454;2023-04-01T13:53:07;75772.25;;;-144.09;100.00
8890;BME280;4481;43.406;24.454;2023-04-01T13:55:51;75830.75;;;-144.09;100.00
8890;BME280;4481;43.406;24.454;2023-04-01T13:58:48;75824.50;;;-144.09;100.00
8890;BME280;4481;43.406;24.454;2023-04-01T14:01:20;75797.34;;;-144.09;100.00
8890;BME280;4481;43.406;24.454;2023-04-01T14:04:09;75759.72;;;-144.09;100.00
8890;BME280;4481;43.406;24.454;2023-04-01T14:06:49;75709.59;;;-144.09;100.00
8890;BME280;4481;43.406;24.454;2023-04-01T14:09:35;75697.06;;;-144.09;100.00
8890;BME280;4481;43.406;24.454;2023-04-01T14:12:06;75688.69;;;-144.09;100.00
8890;BME280;4481;43.406;24.454;2023-04-01T14:14:50;75713.78;;;-144.09;100.00
8890;BME280;4481;43.406;24.454;2023-04-01T14:17:45;75759.72;;;-144.09;100.00
8890;BME280;4481;43.406;24.454;2023-04-01T14:20:26;75749.28;;;-144.09;100.00